Time;durP1;ratioP1;P1;durP2;ratioP2;P2;SDS_P1;SDS_P2;PMS_P1;PMS_P2;Temp;Humidity;BMP_temperature;BMP_pressure;BME280_temperature;BME280_humidity;BME280_pressure;Samples;Min_cycle;Max_cycle;Signal;HPM_P1;HPM_P2
2023/09/14 00:00:11;;;;;;;0.10;0.10;;;;;;;17.14;nan;100770.59;5018466;28;20108;-86
2023/09/14 00:02:36;;;;;;;0.10;0.10;;;;;;;;;;5020284;28;20037;-81
2023/09/14 00:05:01;;;;;;;0.10;0.10;;;;;;;;;;5034351;28;20037;-83
2023/09/14 00:07:27;;;;;;;0.10;0.10;;;;;;;;;;5031973;28;20072;-84
2023/09/14 00:09:52;;;;;;;0.10;0.10;;;;;;;;;;5022074;28;20040;-84
2023/09/14 00:12:17;;;;;;;0.10;0.10;;;;;;;;;;5030196;28;20041;-83
2023/09/14 00:14:42;;;;;;;0.10;0.10;;;;;;;;;;5039897;28;20052;-83
2023/09/14 00:17:08;;;;;;;0.10;0.10;;;;;;;;;;5033054;28;20065;-83
2023/09/14 00:19:33;;;;;;;0.10;0.10;;;;;;;;;;5019727;28;20284;-84
2023/09/14 00:21:58;;;;;;;0.10;0.10;;;;;;;;;;5016917;28;20112;-83
2023/09/14 00:24:23;;;;;;;0.10;0.10;;;;;;;;;;5009875;28;20839;-83
2023/09/14 00:26:49;;;;;;;0.10;0.10;;;;;;;;;;5019005;28;20120;-83
2023/09/14 00:29:14;;;;;;;0.10;0.10;;;;;;;-145.28;100.00;112049.56;5032151;28;20068;-83
2023/09/14 00:31:39;;;;;;;0.10;0.10;;;;;;;;;;5038173;28;20482;-83
2023/09/14 00:34:04;;;;;;;0.10;0.10;;;;;;;;;;5013253;28;20048;-83
2023/09/14 00:36:30;;;;;;;0.20;0.20;;;;;;;;;;5020379;28;20054;-83
2023/09/14 00:38:55;;;;;;;0.15;0.15;;;;;;;;;;5034113;28;20411;-83
2023/09/14 00:41:20;;;;;;;0.10;0.10;;;;;;;;;;5017225;28;20041;-83
2023/09/14 00:43:45;;;;;;;0.10;0.10;;;;;;;16.09;nan;100803.69;5035490;28;20383;-83
2023/09/14 00:46:11;;;;;;;0.10;0.10;;;;;;;16.02;nan;100743.25;5026070;28;20044;-83
2023/09/14 00:48:37;;;;;;;0.10;0.10;;;;;;;;;;5028559;28;20037;-84
2023/09/14 00:51:03;;;;;;;0.10;0.10;;;;;;;;;;5009049;28;20037;-83
2023/09/14 00:53:28;;;;;;;0.10;0.10;;;;;;;;;;5018607;28;20022;-83
2023/09/14 00:55:54;;;;;;;0.10;0.10;;;;;;;;;;5025283;28;20494;-83
2023/09/14 00:58:20;;;;;;;0.10;0.10;;;;;;;15.73;nan;100930.63;5028911;28;20052;-83
2023/09/14 01:00:47;;;;;;;0.10;0.10;;;;;;;15.71;nan;100762.84;5033838;28;20059;-84
2023/09/14 01:03:13;;;;;;;0.10;0.10;;;;;;;;;;5029314;28;20131;-83
2023/09/14 01:05:44;;;;;;;0.10;0.10;;;;;;;15.73;nan;100760.84;5009781;28;20533;-84
2023/09/14 01:08:10;;;;;;;0.10;0.10;;;;;;;15.67;nan;100750.84;5027775;28;20744;-83
2023/09/14 01:10:35;;;;;;;0.10;0.10;;;;;;;;;;5011506;28;20037;-83
2023/09/14 01:13:00;;;;;;;0.10;0.10;;;;;;;;;;5030533;28;20402;-84
2023/09/14 01:15:31;;;;;;;0.10;0.10;;;;;;;15.47;nan;100889.09;5027945;28;20276;-83
2023/09/14 01:18:00;;;;;;;0.10;0.10;;;;;;;;;;5016858;28;20555;-83
2023/09/14 01:20:35;;;;;;;0.20;0.20;;;;;;;;;;5010390;28;20056;-83
2023/09/14 01:23:36;;;;;;;0.20;0.20;;;;;;;15.36;nan;100774.91;5036145;28;20033;-83
2023/09/14 01:26:02;;;;;;;0.10;0.10;;;;;;;15.35;nan;100778.56;5008337;28;20146;-84
2023/09/14 01:28:28;;;;;;;0.10;0.10;;;;;;;;;;5029274;28;20033;-83
2023/09/14 01:30:53;;;;;;;0.10;0.10;;;;;;;15.29;nan;100759.63;5033137;28;20038;-83
2023/09/14 01:33:21;;;;;;;0.10;0.10;;;;;;;;;;5027965;28;20108;-83
2023/09/14 01:35:54;;;;;;;0.20;0.20;;;;;;;;;;5015337;28;20044;-83
2023/09/14 01:38:20;;;;;;;0.20;0.20;;;;;;;;;;5003029;28;20446;-83
2023/09/14 01:40:48;;;;;;;0.20;0.20;;;;;;;;;;5027968;28;20030;-83
2023/09/14 01:43:15;;;;;;;0.10;0.10;;;;;;;15.05;nan;100831.69;5033303;28;20455;-82
2023/09/14 01:45:41;;;;;;;0.10;0.10;;;;;;;;;;5026493;28;20187;-83
2023/09/14 01:48:06;;;;;;;0.20;0.20;;;;;;;;;;5029496;28;20560;-83
2023/09/14 01:50:31;;;;;;;0.20;0.20;;;;;;;;;;5030955;28;20033;-83
2023/09/14 01:52:57;;;;;;;0.10;0.10;;;;;;;;;;5032207;28;20029;-83
2023/09/14 01:55:22;;;;;;;0.20;0.20;;;;;;;;;;5030774;28;20091;-83
2023/09/14 01:57:47;;;;;;;0.10;0.10;;;;;;;;;;5030415;28;20025;-83
2023/09/14 02:00:13;;;;;;;0.10;0.10;;;;;;;14.49;nan;100773.16;5029823;28;20530;-83
2023/09/14 02:02:38;;;;;;;0.20;0.20;;;;;;;14.47;nan;100785.78;5026856;28;20041;-83
2023/09/14 02:05:04;;;;;;;0.15;0.15;;;;;;;;;;5030053;28;20037;-83
2023/09/14 02:07:29;;;;;;;0.10;0.10;;;;;;;;;;5016474;28;20121;-83
2023/09/14 02:09:54;;;;;;;0.20;0.20;;;;;;;;;;5017634;28;20106;-83
2023/09/14 02:12:20;;;;;;;0.20;0.20;;;;;;;;;;5018366;28;20477;-83
2023/09/14 02:14:45;;;;;;;0.10;0.10;;;;;;;;;;5033961;28;20045;-82
2023/09/14 02:17:10;;;;;;;0.15;0.15;;;;;;;;;;5012297;28;20069;-83
2023/09/14 02:19:36;;;;;;;0.20;0.20;;;;;;;14.31;nan;100786.66;5030852;28;20056;-83
2023/09/14 02:22:01;;;;;;;0.20;0.20;;;;;;;;;;5011660;28;20035;-83
2023/09/14 02:24:27;;;;;;;0.10;0.10;;;;;;;;;;5030788;28;20338;-83
2023/09/14 02:26:54;;;;;;;0.10;0.10;;;;;;;;;;5030259;28;20033;-83
2023/09/14 02:29:19;;;;;;;0.10;0.10;;;;;;;14.27;nan;100780.00;5013739;28;20406;-83
2023/09/14 02:31:44;;;;;;;0.20;0.20;;;;;;;;;;5028361;28;20037;-83
2023/09/14 02:34:09;;;;;;;0.20;0.20;;;;;;;;;;5012036;28;20045;-83
2023/09/14 02:36:34;;;;;;;0.10;0.10;;;;;;;;;;5017446;28;20272;-83
2023/09/14 02:39:00;;;;;;;0.20;0.20;;;;;;;13.87;nan;100795.03;5032624;28;20630;-83
2023/09/14 02:41:25;;;;;;;0.13;0.13;;;;;;;;;;5031693;28;20034;-83
2023/09/14 02:43:50;;;;;;;0.20;0.20;;;;;;;;;;5013341;28;20030;-83
2023/09/14 02:46:15;;;;;;;0.20;0.20;;;;;;;;;;5010698;28;20025;-83
2023/09/14 02:48:40;;;;;;;0.10;0.10;;;;;;;22.71;100.00;65960.16;5030116;28;20044;-83
2023/09/14 02:51:06;;;;;;;0.20;0.20;;;;;;;;;;5031154;28;20926;-83
2023/09/14 02:53:31;;;;;;;0.10;0.10;;;;;;;;;;5012053;28;20038;-83
2023/09/14 02:55:56;;;;;;;0.20;0.20;;;;;;;;;;5030877;28;20029;-83
2023/09/14 02:58:22;;;;;;;0.10;0.10;;;;;;;;;;5014780;28;20199;-83
2023/09/14 03:00:48;;;;;;;0.20;0.20;;;;;;;;;;5016065;28;20108;-83
2023/09/14 03:03:13;;;;;;;0.20;0.20;;;;;;;;;;5015929;28;20058;-83
2023/09/14 03:05:38;;;;;;;0.17;0.17;;;;;;;;;;5038888;28;20033;-83
2023/09/14 03:08:03;;;;;;;0.10;0.10;;;;;;;;;;5038016;28;20456;-83
2023/09/14 03:10:28;;;;;;;0.10;0.10;;;;;;;;;;5032445;28;20036;-83
2023/09/14 03:12:53;;;;;;;0.20;0.20;;;;;;;;;;5016325;28;20120;-83
2023/09/14 03:15:19;;;;;;;0.20;0.20;;;;;;;;;;5034154;28;20049;-83
2023/09/14 03:17:44;;;;;;;0.20;0.20;;;;;;;;;;5033752;28;20123;-83
2023/09/14 03:20:10;;;;;;;0.20;0.20;;;;;;;;;;5032987;28;20308;-83
2023/09/14 03:22:35;;;;;;;0.20;0.20;;;;;;;;;;5017658;28;20088;-82
2023/09/14 03:25:01;;;;;;;0.20;0.20;;;;;;;;;;5039556;28;20514;-83
2023/09/14 03:27:26;;;;;;;0.20;0.20;;;;;;;13.11;nan;100871.22;5032494;28;20041;-83
2023/09/14 03:29:51;;;;;;;0.10;0.10;;;;;;;;;;5034563;28;20588;-83
2023/09/14 03:32:16;;;;;;;0.20;0.20;;;;;;;;;;5015583;28;20288;-83
2023/09/14 03:34:42;;;;;;;0.20;0.20;;;;;;;;;;5034833;28;20400;-83
2023/09/14 03:37:07;;;;;;;0.20;0.20;;;;;;;;;;5016114;28;20180;-83
2023/09/14 03:39:32;;;;;;;0.20;0.20;;;;;;;;;;5035871;28;20407;-83
2023/09/14 03:41:57;;;;;;;0.20;0.20;;;;;;;12.84;nan;100973.09;5023361;28;20272;-83
2023/09/14 03:44:23;;;;;;;0.20;0.20;;;;;;;12.80;nan;100977.06;5032898;28;20033;-83
2023/09/14 03:46:48;;;;;;;0.20;0.20;;;;;;;;;;5033025;28;20272;-83
2023/09/14 03:49:13;;;;;;;0.10;0.10;;;;;;;;;;5032991;28;20047;-83
2023/09/14 03:51:38;;;;;;;0.20;0.20;;;;;;;;;;5011626;28;20112;-83
2023/09/14 03:54:04;;;;;;;0.20;0.20;;;;;;;12.49;nan;100953.63;5030009;28;20288;-83
2023/09/14 03:56:29;;;;;;;0.20;0.20;;;;;;;;;;5015061;28;20033;-83
2023/09/14 03:58:54;;;;;;;0.20;0.20;;;;;;;;;;5014079;28;20116;-83
2023/09/14 04:01:19;;;;;;;0.20;0.20;;;;;;;;;;5032506;28;20033;-83
2023/09/14 04:03:44;;;;;;;0.20;0.20;;;;;;;;;;5014676;28;20261;-83
2023/09/14 04:06:10;;;;;;;0.20;0.20;;;;;;;;;;5018730;28;20447;-83
2023/09/14 04:08:35;;;;;;;0.20;0.20;;;;;;;;;;5033088;28;20032;-83
2023/09/14 04:11:00;;;;;;;0.20;0.20;;;;;;;;;;5033131;28;20030;-83
2023/09/14 04:13:30;;;;;;;0.20;0.20;;;;;;;;;;5031295;28;20103;-83
2023/09/14 04:15:56;;;;;;;0.20;0.20;;;;;;;;;;5016470;28;20029;-83
2023/09/14 04:18:22;;;;;;;0.20;0.20;;;;;;;;;;5033807;28;20071;-83
2023/09/14 04:20:51;;;;;;;0.20;0.20;;;;;;;12.40;nan;100890.91;5039039;28;20036;-83
2023/09/14 04:23:16;;;;;;;0.20;0.20;;;;;;;;;;5041815;28;20029;-83
2023/09/14 04:25:44;;;;;;;0.20;0.20;;;;;;;;;;5037583;28;20052;-83
2023/09/14 04:28:11;;;;;;;0.20;0.20;;;;;;;;;;5027737;28;20034;-83
2023/09/14 04:30:43;;;;;;;0.20;0.20;;;;;;;;;;5014240;28;20463;-82
2023/09/14 04:33:08;;;;;;;0.20;0.20;;;;;;;;;;5015259;28;20044;-83
2023/09/14 04:35:34;;;;;;;0.20;0.20;;;;;;;;;;5035002;28;20502;-83
2023/09/14 04:37:59;;;;;;;0.20;0.20;;;;;;;;;;5034368;28;20038;-83
2023/09/14 04:40:24;;;;;;;0.20;0.20;;;;;;;;;;5035974;28;20116;-83
2023/09/14 04:42:49;;;;;;;0.20;0.20;;;;;;;;;;5015034;28;20417;-83
2023/09/14 04:45:14;;;;;;;0.20;0.20;;;;;;;;;;5033865;28;20041;-83
2023/09/14 04:47:40;;;;;;;0.10;0.10;;;;;;;;;;5032163;28;20072;-83
2023/09/14 04:50:05;;;;;;;0.20;0.20;;;;;;;;;;5011499;28;20447;-83
2023/09/14 04:52:30;;;;;;;0.20;0.20;;;;;;;;;;5031476;28;20149;-84
2023/09/14 04:54:56;;;;;;;0.20;0.20;;;;;;;;;;5032809;28;20490;-83
2023/09/14 04:57:23;;;;;;;0.20;0.20;;;;;;;;;;5015360;28;20079;-83
2023/09/14 04:59:49;;;;;;;0.20;0.20;;;;;;;;;;5015833;28;20280;-83
2023/09/14 05:02:14;;;;;;;0.20;0.20;;;;;;;;;;5041293;28;20068;-83
2023/09/14 05:04:39;;;;;;;0.10;0.10;;;;;;;;;;5033574;28;20025;-83
2023/09/14 05:07:04;;;;;;;0.13;0.13;;;;;;;;;;5018389;28;20044;-83
2023/09/14 05:09:29;;;;;;;0.17;0.17;;;;;;;;;;5034042;28;20038;-83
2023/09/14 05:11:54;;;;;;;0.20;0.20;;;;;;;;;;5033019;28;20029;-83
2023/09/14 05:14:20;;;;;;;0.20;0.20;;;;;;;;;;5026634;28;20232;-83
2023/09/14 05:16:45;;;;;;;0.20;0.20;;;;;;;;;;5015950;28;20037;-83
2023/09/14 05:19:10;;;;;;;0.20;0.20;;;;;;;;;;5015013;28;20041;-83
2023/09/14 05:21:35;;;;;;;0.20;0.20;;;;;;;;;;5036113;28;20294;-84
2023/09/14 05:24:00;;;;;;;0.20;0.20;;;;;;;;;;5044749;28;20040;-83
2023/09/14 05:26:25;;;;;;;0.20;0.20;;;;;;;;;;5017465;28;20091;-83
2023/09/14 05:28:51;;;;;;;0.10;0.10;;;;;;;;;;5033602;28;20129;-83
2023/09/14 05:31:16;;;;;;;0.20;0.20;;;;;;;;;;5032912;28;20034;-83
2023/09/14 05:33:41;;;;;;;0.20;0.20;;;;;;;;;;5032494;28;20033;-82
2023/09/14 05:36:06;;;;;;;0.10;0.10;;;;;;;;;;5033390;28;20530;-82
2023/09/14 05:38:32;;;;;;;0.20;0.20;;;;;;;;;;5033288;28;20056;-83
2023/09/14 05:40:57;;;;;;;;;;;;;;;;;;5032704;28;20395;-82
2023/09/14 05:43:22;;;;;;;0.20;0.20;;;;;;;;;;5036753;28;19924;-83
2023/09/14 05:45:49;;;;;;;0.20;0.20;;;;;;;13.12;nan;101029.53;5032843;28;20029;-83
2023/09/14 05:48:14;;;;;;;0.20;0.20;;;;;;;;;;5037641;28;20033;-83
2023/09/14 05:50:39;;;;;;;0.20;0.20;;;;;;;;;;5032994;28;20392;-83
2023/09/14 05:53:05;;;;;;;0.20;0.20;;;;;;;;;;5032069;28;20128;-83
2023/09/14 05:55:30;;;;;;;0.20;0.20;;;;;;;;;;5034611;28;20510;-84
2023/09/14 05:57:55;;;;;;;0.20;0.20;;;;;;;;;;5040213;28;20280;-84
2023/09/14 06:00:20;;;;;;;0.20;0.20;;;;;;;;;;5032958;28;20037;-84
2023/09/14 06:02:45;;;;;;;0.20;0.20;;;;;;;;;;5010724;28;20288;-83
2023/09/14 06:05:11;;;;;;;0.20;0.20;;;;;;;;;;5014029;28;20384;-84
2023/09/14 06:07:37;;;;;;;0.20;0.20;;;;;;;15.16;nan;100950.31;5021113;28;20033;-83
2023/09/14 06:10:03;;;;;;;0.10;0.10;;;;;;;15.47;nan;100900.59;5010081;28;20069;-84
2023/09/14 06:12:29;;;;;;;0.10;0.10;;;;;;;15.68;nan;100920.44;5013275;28;20030;-84
2023/09/14 06:14:54;;;;;;;0.10;0.10;;;;;;;;;;5013398;28;20402;-84
2023/09/14 06:17:20;;;;;;;0.20;0.20;;;;;;;;;;5010992;28;20045;-84
2023/09/14 06:19:45;;;;;;;0.20;0.20;;;;;;;;;;5013197;28;20292;-84
2023/09/14 06:22:10;;;;;;;;;;;;;;;16.47;nan;100898.88;5031878;28;20048;-83
2023/09/14 06:24:36;;;;;;;;;;;;;;;16.66;nan;100889.50;5025232;28;19916;-83
2023/09/14 06:27:01;;;;;;;;;;;;;;;16.76;nan;100906.94;5035515;28;20382;-84
2023/09/14 06:29:26;;;;;;;;;;;;;;;16.76;nan;100911.47;5036136;28;20293;-84
2023/09/14 06:31:51;;;;;;;;;;;;;;;16.87;nan;100918.22;5036577;28;19940;-84
2023/09/14 06:34:16;;;;;;;;;;;;;;;17.04;nan;100918.84;5035697;28;19924;-84
2023/09/14 06:36:42;;;;;;;;;;;;;;;17.05;nan;100925.88;5018187;28;19913;-84
2023/09/14 06:39:07;;;;;;;;;;;;;;;17.34;nan;100922.34;5038516;28;19955;-84
2023/09/14 06:41:32;;;;;;;;;;;;;;;17.68;nan;100910.19;5018272;28;19913;-83
2023/09/14 06:43:57;;;;;;;;;;;;;;;;;;5017880;28;20445;-84
2023/09/14 06:46:22;;;;;;;0.10;0.10;;;;;;;;;;5034625;28;19913;-84
2023/09/14 06:48:47;;;;;;;0.10;0.10;;;;;;;;;;5034545;28;20403;-84
2023/09/14 06:51:13;;;;;;;0.00;0.00;;;;;;;;;;5034087;28;20406;-84
2023/09/14 06:53:38;;;;;;;;;;;;;;;18.86;nan;100952.50;5017074;28;20056;-84
2023/09/14 06:56:07;;;;;;;;;;;;;;;19.00;nan;100953.41;5037808;28;19972;-83
2023/09/14 06:58:32;;;;;;;;;;;;;;;19.36;nan;100967.63;5035853;28;20477;-84
2023/09/14 07:01:01;;;;;;;;;;;;;;;19.66;nan;100968.16;5032017;28;19984;-83
2023/09/14 07:03:26;;;;;;;;;;;;;;;20.05;nan;100972.84;5016498;28;19920;-84
2023/09/14 07:05:51;;;;;;;;;;;;;;;20.24;nan;100973.91;5018637;28;19916;-84
2023/09/14 07:08:16;;;;;;;0.10;0.10;;;;;;;20.26;nan;100915.47;5035591;28;20251;-84
2023/09/14 07:10:42;;;;;;;0.10;0.10;;;;;;;20.29;nan;100970.63;5040530;28;20033;-84
2023/09/14 07:13:07;;;;;;;0.10;0.10;;;;;;;20.43;nan;100937.38;5020679;28;20026;-84
2023/09/14 07:15:33;;;;;;;0.10;0.10;;;;;;;;;;5037629;28;20575;-85
2023/09/14 07:17:58;;;;;;;0.00;0.00;;;;;;;20.88;nan;100974.34;5020225;28;20272;-84
2023/09/14 07:20:23;;;;;;;;;;;;;;;21.26;nan;100979.88;5040270;28;20030;-85
2023/09/14 07:22:48;;;;;;;;;;;;;;;21.47;nan;101003.00;5034042;28;20394;-85
2023/09/14 07:25:13;;;;;;;;;;;;;;;21.68;nan;100993.00;5036556;28;19913;-85
2023/09/14 07:27:39;;;;;;;0.00;0.00;;;;;;;21.75;nan;100921.13;5013801;28;19917;-85
2023/09/14 07:30:04;;;;;;;0.00;0.00;;;;;;;;;;5031086;28;20034;-85
2023/09/14 07:32:29;;;;;;;0.00;0.00;;;;;;;;;;5034660;28;20476;-84
2023/09/14 07:34:57;;;;;;;0.00;0.00;;;;;;;;;;5034308;28;20431;-85
2023/09/14 07:37:22;;;;;;;0.00;0.00;;;;;;;;;;5033038;28;20474;-85
2023/09/14 07:39:47;;;;;;;0.00;0.00;;;;;;;;;;5034652;28;20438;-85
2023/09/14 07:42:13;;;;;;;;;;;;;;;23.32;nan;101010.06;5017479;28;20092;-83
2023/09/14 07:44:38;;;;;;;;;;;;;;;23.47;nan;101017.78;5014963;28;19944;-83
2023/09/14 07:47:03;;;;;;;;;;;;;;;23.70;nan;101027.91;5014827;28;19913;-83
2023/09/14 07:49:28;;;;;;;;;;;;;;;23.85;nan;101024.81;5037135;28;19916;-83
2023/09/14 07:51:54;;;;;;;;;;;;;;;23.75;nan;101030.75;5037609;28;20031;-83
2023/09/14 07:54:20;;;;;;;;;;;;;;;23.70;nan;101026.00;5035824;28;20050;-82
2023/09/14 07:56:47;;;;;;;;;;;;;;;23.27;nan;101018.00;5042039;28;19917;-82
2023/09/14 07:59:12;;;;;;;;;;;;;;;23.41;nan;101024.91;5040440;28;20309;-83
2023/09/14 08:01:37;;;;;;;;;;;;;;;23.41;nan;101030.31;5037806;28;19913;-80
2023/09/14 08:04:03;;;;;;;;;;;;;;;23.49;nan;101029.19;5037549;28;19967;-83
2023/09/14 08:06:28;;;;;;;;;;;;;;;23.56;nan;101027.22;5018869;28;19962;-83
2023/09/14 08:08:55;;;;;;;;;;;;;;;23.45;nan;101026.09;5040337;28;19967;-84
2023/09/14 08:11:20;;;;;;;;;;;;;;;23.42;nan;101025.72;5033178;28;20055;-83
2023/09/14 08:13:45;;;;;;;;;;;;;;;23.49;nan;101040.78;5015044;28;20410;-84
2023/09/14 08:16:10;;;;;;;;;;;;;;;23.21;nan;101027.81;5020673;28;19917;-84
2023/09/14 08:18:35;;;;;;;;;;;;;;;23.16;nan;101032.22;5032850;28;19967;-83
2023/09/14 08:21:01;;;;;;;;;;;;;;;23.74;nan;101040.75;5012319;28;19912;-84
2023/09/14 08:23:27;;;;;;;;;;;;;;;24.33;nan;101038.28;5016019;28;20290;-84
2023/09/14 08:25:53;;;;;;;;;;;;;;;24.09;nan;101033.84;5028119;28;19917;-85
2023/09/14 08:28:19;;;;;;;;;;;;;;;24.57;nan;101033.81;5006942;28;20264;-83
2023/09/14 08:30:45;;;;;;;;;;;;;;;23.89;nan;101036.81;5014491;28;19920;-85
2023/09/14 08:33:11;;;;;;;;;;;;;;;24.32;nan;101035.81;5034131;28;19920;-83
2023/09/14 08:35:37;;;;;;;;;;;;;;;24.93;nan;101037.38;5031568;28;19913;-84
2023/09/14 08:38:03;;;;;;;;;;;;;;;25.29;nan;101018.41;5037500;28;19917;-84
2023/09/14 08:40:29;;;;;;;;;;;;;;;25.26;nan;101054.09;5031810;28;19928;-84
2023/09/14 08:42:54;;;;;;;;;;;;;;;25.05;nan;101044.66;5037312;28;19917;-84
2023/09/14 08:45:24;;;;;;;;;;;;;;;25.57;nan;101048.25;5022123;28;19917;-83
2023/09/14 08:47:49;;;;;;;;;;;;;;;26.23;nan;101053.38;5031448;28;19913;-83
2023/09/14 08:50:16;;;;;;;;;;;;;;;26.89;nan;101037.44;5017871;28;19917;-85
2023/09/14 08:52:42;;;;;;;;;;;;;;;27.45;nan;101029.28;5021658;28;19917;-84
2023/09/14 08:55:08;;;;;;;;;;;;;;;28.11;nan;101051.84;5030727;28;20008;-84
2023/09/14 08:57:34;;;;;;;;;;;;;;;28.05;nan;101046.59;5031199;28;19952;-85
2023/09/14 09:00:00;;;;;;;;;;;;;;;28.38;nan;101043.66;5034665;28;19940;-83
2023/09/14 09:02:27;;;;;;;;;;;;;;;28.53;nan;101044.91;5019172;28;19955;-83
2023/09/14 09:04:52;;;;;;;;;;;;;;;28.73;nan;101049.72;5040569;28;19916;-84
2023/09/14 09:07:17;;;;;;;;;;;;;;;29.27;nan;101048.72;5017358;28;19925;-83
2023/09/14 09:09:43;;;;;;;;;;;;;;;29.36;nan;101042.50;5038844;28;20349;-85
2023/09/14 09:12:08;;;;;;;;;;;;;;;28.78;nan;101047.03;5030337;28;20401;-84
2023/09/14 09:14:37;;;;;;;;;;;;;;;28.97;nan;101033.81;5032019;28;20000;-83
2023/09/14 09:17:02;;;;;;;;;;;;;;;29.39;nan;101052.88;5013072;28;19913;-83
2023/09/14 09:19:28;;;;;;;;;;;;;;;29.54;nan;101057.59;5013076;28;19940;-85
2023/09/14 09:21:53;;;;;;;;;;;;;;;29.80;nan;101063.16;5013398;28;19957;-84
2023/09/14 09:24:27;;;;;;;;;;;;;;;30.16;nan;101044.97;5015243;28;20429;-83
2023/09/14 09:26:55;;;;;;;;;;;;;;;30.14;nan;101049.88;5025142;28;20630;-85
2023/09/14 09:29:22;;;;;;;;;;;;;;;30.37;nan;101047.78;5015707;28;20301;-85
2023/09/14 09:31:50;;;;;;;;;;;;;;;29.82;nan;101040.00;5016093;28;19968;-84
2023/09/14 09:34:19;;;;;;;;;;;;;;;30.63;nan;101037.66;5032914;28;20358;-82
2023/09/14 09:36:44;;;;;;;;;;;;;;;31.40;nan;101034.84;5033142;28;20363;-84
2023/09/14 09:39:11;;;;;;;;;;;;;;;31.33;nan;101035.91;5032667;28;19923;-85
2023/09/14 09:41:37;;;;;;;;;;;;;;;30.71;nan;101028.94;5034610;28;19920;-84
2023/09/14 09:44:06;;;;;;;;;;;;;;;30.11;nan;101036.00;5032891;28;20275;-84
2023/09/14 09:46:35;;;;;;;;;;;;;;;29.41;nan;101028.09;5033141;28;20369;-85
2023/09/14 09:49:14;;;;;;;;;;;;;;;30.32;nan;101026.75;5033126;28;19917;-84
2023/09/14 09:51:39;;;;;;;;;;;;;;;31.07;nan;101024.25;5021335;28;19921;-85
2023/09/14 09:54:06;;;;;;;;;;;;;;;31.62;nan;101026.28;5005694;28;20211;-84
2023/09/14 09:56:35;;;;;;;;;;;;;;;32.05;nan;101029.34;5031809;28;19917;-84
2023/09/14 09:59:01;;;;;;;;;;;;;;;32.56;nan;101027.06;5031785;28;20322;-85
2023/09/14 10:01:26;;;;;;;;;;;;;;;32.33;nan;101020.38;5040307;28;19920;-85
2023/09/14 10:03:54;;;;;;;;;;;;;;;32.17;nan;101022.41;5026142;28;19976;-85
2023/09/14 10:06:19;;;;;;;;;;;;;;;32.30;nan;101022.88;5035496;28;19913;-84
2023/09/14 10:08:51;;;;;;;;;;;;;;;32.55;nan;101021.88;5018903;28;19939;-85
2023/09/14 10:11:18;;;;;;;;;;;;;;;33.02;nan;101028.53;5039907;28;19948;-85
2023/09/14 10:13:43;;;;;;;;;;;;;;;33.36;nan;101031.19;5018917;28;19963;-85
2023/09/14 10:16:09;;;;;;;;;;;;;;;33.66;nan;101033.84;5037884;28;19912;-84
2023/09/14 10:18:35;;;;;;;;;;;;;;;34.28;nan;101029.13;5020347;28;19927;-85
2023/09/14 10:21:01;;;;;;;;;;;;;;;34.68;nan;101021.31;5018259;28;20349;-84
2023/09/14 10:23:28;;;;;;;0.00;0.00;;;;;;;34.16;nan;101020.56;5038322;28;19913;-83
2023/09/14 10:25:53;;;;;;;0.00;0.00;;;;;;;;;;5029880;28;20061;-84
2023/09/14 10:28:22;;;;;;;0.00;0.00;;;;;;;33.82;nan;101016.91;5044034;28;20387;-84
2023/09/14 10:30:50;;;;;;;0.00;0.00;;;;;;;33.33;nan;101020.00;5046896;28;20032;-84
2023/09/14 10:33:17;;;;;;;0.00;0.00;;;;;;;32.87;nan;101051.44;5037836;28;20383;-84
2023/09/14 10:35:43;;;;;;;0.00;0.00;;;;;;;33.32;nan;101019.16;5035784;28;20751;-84
2023/09/14 10:38:10;;;;;;;0.00;0.00;;;;;;;33.17;nan;101049.50;5020422;28;20120;-84
2023/09/14 10:40:37;;;;;;;0.00;0.00;;;;;;;33.55;nan;101014.75;5021897;28;20044;-85
2023/09/14 10:43:04;;;;;;;;;;;;;;;;;;5026014;28;20003;-84
2023/09/14 10:45:50;;;;;;;0.00;0.00;;;;;;;34.15;nan;101018.91;5039561;28;19913;-84
2023/09/14 10:48:19;;;;;;;0.00;0.00;;;;;;;34.30;nan;101054.38;5015849;28;20033;-83
2023/09/14 10:50:45;;;;;;;0.00;0.00;;;;;;;34.46;nan;100986.25;5042324;28;20044;-83
2023/09/14 10:53:13;;;;;;;;;;;;;;;35.22;nan;101002.47;5031459;28;20037;-83
2023/09/14 10:55:38;;;;;;;;;;;;;;;35.24;nan;101000.25;5045050;28;20294;-83
2023/09/14 10:58:04;;;;;;;0.00;0.00;;;;;;;;;;5043049;28;19917;-83
2023/09/14 11:00:33;;;;;;;0.00;0.00;;;;;;;;;;5042818;28;20406;-83
2023/09/14 11:02:59;;;;;;;0.00;0.00;;;;;;;;;;5039398;28;20391;-83
2023/09/14 11:05:25;;;;;;;0.00;0.00;;;;;;;;;;5020700;28;20780;-83
2023/09/14 11:07:55;;;;;;;0.00;0.00;;;;;;;;;;5037332;28;20505;-84
2023/09/14 11:10:21;;;;;;;0.00;0.00;;;;;;;;;;5038586;28;20447;-83
2023/09/14 11:12:46;;;;;;;0.00;0.00;;;;;;;;;;5027736;28;20407;-83
2023/09/14 11:15:12;;;;;;;0.00;0.00;;;;;;;;;;5019224;28;20402;-83
2023/09/14 11:17:41;;;;;;;0.00;0.00;;;;;;;;;;5021269;28;20420;-83
2023/09/14 11:20:27;;;;;;;0.00;0.00;;;;;;;;;;5035333;28;20438;-83
2023/09/14 11:22:52;;;;;;;0.00;0.00;;;;;;;;;;5026572;28;20400;-83
2023/09/14 11:25:27;;;;;;;0.00;0.00;;;;;;;;;;5016462;28;20412;-84
2023/09/14 11:27:52;;;;;;;0.00;0.00;;;;;;;;;;5036973;28;20410;-83
2023/09/14 11:30:19;;;;;;;0.00;0.00;;;;;;;;;;5039423;28;20411;-84
2023/09/14 11:32:44;;;;;;;0.00;0.00;;;;;;;;;;5034810;28;20546;-84
2023/09/14 11:35:09;;;;;;;0.00;0.00;;;;;;;;;;5018659;28;20435;-84
2023/09/14 11:37:35;;;;;;;0.00;0.00;;;;;;;;;;5026580;28;20542;-84
2023/09/14 11:40:01;;;;;;;0.00;0.00;;;;;;;;;;5028863;28;20417;-84
2023/09/14 11:45:29;;;;;;;0.00;0.00;;;;;;;;;;5021987;28;20414;-84
2023/09/14 11:47:54;;;;;;;0.00;0.00;;;;;;;;;;5030877;28;20927;-85
2023/09/14 11:50:21;;;;;;;0.00;0.00;;;;;;;;;;5013478;28;20418;-85
2023/09/14 11:52:46;;;;;;;0.00;0.00;;;;;;;;;;5032153;28;20418;-86
2023/09/14 11:55:14;;;;;;;0.00;0.00;;;;;;;;;;5031650;28;20847;-85
2023/09/14 11:57:39;;;;;;;0.00;0.00;;;;;;;;;;5012946;28;20977;-85
2023/09/14 12:00:08;;;;;;;0.00;0.00;;;;;;;;;;5011673;28;20713;-87
2023/09/14 12:02:34;;;;;;;0.00;0.00;;;;;;;;;;5035357;28;20417;-84
2023/09/14 12:05:00;;;;;;;0.00;0.00;;;;;;;;;;5032235;28;20399;-85
2023/09/14 12:07:27;;;;;;;0.00;0.00;;;;;;;;;;5032650;28;20423;-86
2023/09/14 12:09:54;;;;;;;0.00;0.00;;;;;;;;;;5020933;28;20482;-85
2023/09/14 12:12:26;;;;;;;0.00;0.00;;;;;;;;;;5022759;28;20399;-85
2023/09/14 12:14:51;;;;;;;0.00;0.00;;;;;;;;;;5014289;28;20418;-85
2023/09/14 12:17:18;;;;;;;0.00;0.00;;;;;;;;;;5018572;28;20403;-84
2023/09/14 12:19:47;;;;;;;0.00;0.00;;;;;;;;;;5015667;28;20756;-84
2023/09/14 12:22:14;;;;;;;0.00;0.00;;;;;;;;;;5008094;28;20405;-85
2023/09/14 12:24:39;;;;;;;0.00;0.00;;;;;;;;;;5008361;28;20460;-84
2023/09/14 12:27:05;;;;;;;0.00;0.00;;;;;;;;;;5030997;28;20503;-85
2023/09/14 12:29:30;;;;;;;0.00;0.00;;;;;;;;;;5010724;28;20757;-85
2023/09/14 12:31:55;;;;;;;0.00;0.00;;;;;;;;;;5031405;28;20498;-84
2023/09/14 12:34:20;;;;;;;0.00;0.00;;;;;;;;;;5015352;28;20400;-84
2023/09/14 12:36:46;;;;;;;0.00;0.00;;;;;;;;;;5015140;28;20487;-84
2023/09/14 12:39:12;;;;;;;0.00;0.00;;;;;;;;;;5032180;28;20975;-85
2023/09/14 12:41:39;;;;;;;0.00;0.00;;;;;;;;;;5031766;28;20764;-85
2023/09/14 12:44:04;;;;;;;0.00;0.00;;;;;;;;;;5033818;28;20415;-85
2023/09/14 12:46:31;;;;;;;0.00;0.00;;;;;;;;;;5031532;28;20402;-85
2023/09/14 12:48:59;;;;;;;0.00;0.00;;;;;;;;;;5014495;28;20485;-86
2023/09/14 12:51:25;;;;;;;0.00;0.00;;;;;;;;;;5030938;28;20586;-84
2023/09/14 12:53:50;;;;;;;0.00;0.00;;;;;;;;;;5015246;28;20490;-85
2023/09/14 12:56:16;;;;;;;0.00;0.00;;;;;;;;;;5028094;28;20966;-84
2023/09/14 12:58:41;;;;;;;0.00;0.00;;;;;;;;;;5013529;28;20780;-83
2023/09/14 13:01:08;;;;;;;0.00;0.00;;;;;;;;;;5026945;28;20839;-85
2023/09/14 13:03:34;;;;;;;0.00;0.00;;;;;;;24.07;nan;100949.50;5017432;28;20702;-85
2023/09/14 13:06:00;;;;;;;0.00;0.00;;;;;;;;;;5030734;28;20395;-84
2023/09/14 13:08:25;;;;;;;0.00;0.00;;;;;;;;;;5030379;28;20542;-85
2023/09/14 13:10:50;;;;;;;0.00;0.00;;;;;;;22.39;100.00;120308.03;5013910;28;20422;-84
2023/09/14 13:13:21;;;;;;;0.00;0.00;;;;;;;;;;5030818;28;20896;-85
2023/09/14 13:15:46;;;;;;;0.00;0.00;;;;;;;;;;5018164;28;20426;-85
2023/09/14 13:18:15;;;;;;;0.00;0.00;;;;;;;;;;5031301;28;20396;-85
2023/09/14 13:20:47;;;;;;;0.00;0.00;;;;;;;;;;5031503;28;20399;-86
2023/09/14 13:23:12;;;;;;;0.00;0.00;;;;;;;;;;5031124;28;20436;-85
2023/09/14 13:25:41;;;;;;;0.00;0.00;;;;;;;;;;5032115;28;20404;-84
2023/09/14 13:28:06;;;;;;;0.00;0.00;;;;;;;;;;5031203;28;20485;-86
2023/09/14 13:30:31;;;;;;;0.00;0.00;;;;;;;;;;5014112;28;20403;-86
2023/09/14 13:32:57;;;;;;;0.00;0.00;;;;;;;;;;5034951;28;20784;-84
2023/09/14 13:35:23;;;;;;;0.00;0.00;;;;;;;;;;5032263;28;20502;-83
2023/09/14 13:37:49;;;;;;;0.00;0.00;;;;;;;;;;5014674;28;20407;-83
2023/09/14 13:40:18;;;;;;;0.00;0.00;;;;;;;;;;5021678;28;20431;-85
2023/09/14 13:42:51;;;;;;;0.00;0.00;;;;;;;22.39;100.00;159248.94;5015390;28;20426;-85